createdAt,value
2022-12-31T00:00:09.955Z,94.92
2022-12-31T00:02:37.223Z,95.31
2022-12-31T00:05:06.815Z,94.92
2022-12-31T00:10:02.457Z,94.99
2022-12-31T00:12:31.069Z,94.61
2022-12-31T00:14:59.859Z,94.43
2022-12-31T00:17:28.324Z,94.53
2022-12-31T00:19:55.419Z,94.07
2022-12-31T00:22:22.437Z,94.15
2022-12-31T00:24:49.441Z,94.21
2022-12-31T00:27:16.540Z,94.40
2022-12-31T00:29:43.629Z,94.30
2022-12-31T00:32:10.865Z,94.40
2022-12-31T00:34:37.930Z,94.51
2022-12-31T00:37:05.094Z,94.20
2022-12-31T00:39:32.152Z,94.22
2022-12-31T00:41:59.225Z,94.38
2022-12-31T00:44:26.320Z,93.51
2022-12-31T00:46:53.316Z,94.11
2022-12-31T00:49:20.355Z,93.81
2022-12-31T00:51:47.656Z,94.10
2022-12-31T00:54:15.157Z,93.90
2022-12-31T00:56:42.177Z,93.77
2022-12-31T00:59:09.204Z,93.21
2022-12-31T01:01:39.002Z,93.41
2022-12-31T01:04:10.403Z,93.38
2022-12-31T01:06:37.947Z,93.58
2022-12-31T01:09:06.354Z,93.74
2022-12-31T01:11:33.657Z,94.01
2022-12-31T01:14:09.914Z,93.73
2022-12-31T01:16:52.623Z,93.97
2022-12-31T01:19:28.112Z,93.71
2022-12-31T01:21:56.148Z,94.46
2022-12-31T01:24:23.471Z,94.48
2022-12-31T01:26:51.499Z,94.04
2022-12-31T01:29:18.565Z,94.15
2022-12-31T01:31:45.602Z,93.74
2022-12-31T01:34:12.722Z,93.58
2022-12-31T01:36:39.885Z,93.73
2022-12-31T01:39:08.879Z,94.30
2022-12-31T01:41:39.152Z,94.73
2022-12-31T01:44:52.507Z,94.60
2022-12-31T01:47:28.229Z,95.18
2022-12-31T01:50:02.691Z,95.64
2022-12-31T01:52:37.736Z,95.56
2022-12-31T01:55:44.878Z,95.65
2022-12-31T01:58:19.615Z,96.15
2022-12-31T02:00:47.661Z,96.24
2022-12-31T02:03:15.015Z,96.45
2022-12-31T02:06:09.322Z,96.54
2022-12-31T02:08:41.978Z,96.46
2022-12-31T02:11:29.320Z,96.33
2022-12-31T02:14:00.905Z,96.84
2022-12-31T02:16:40.306Z,97.65
2022-12-31T02:20:18.267Z,97.94
2022-12-31T02:23:16.279Z,98.35
2022-12-31T02:26:30.325Z,98.99
2022-12-31T02:29:34.945Z,99.03
2022-12-31T02:32:08.287Z,99.27
2022-12-31T02:34:45.122Z,99.15
2022-12-31T02:37:16.284Z,99.60
2022-12-31T02:39:44.521Z,99.19
2022-12-31T02:42:12.169Z,99.16
2022-12-31T02:44:41.391Z,99.01
2022-12-31T02:47:34.990Z,98.19
2022-12-31T02:50:42.930Z,98.82
2022-12-31T02:53:48.420Z,99.08
2022-12-31T02:56:36.551Z,99.71
2022-12-31T02:59:29.737Z,100.00
2022-12-31T03:02:16.145Z,100.00
2022-12-31T03:04:47.976Z,100.00
2022-12-31T03:07:20.607Z,100.00
2022-12-31T03:09:47.590Z,100.00
2022-12-31T03:12:48.338Z,100.00
2022-12-31T03:15:34.651Z,100.00
2022-12-31T03:18:13.885Z,100.00
2022-12-31T03:21:06.126Z,100.00
2022-12-31T03:23:39.304Z,100.00
2022-12-31T03:26:12.373Z,100.00
2022-12-31T03:28:42.769Z,100.00
2022-12-31T03:31:09.976Z,100.00
2022-12-31T03:33:39.490Z,100.00
2022-12-31T03:36:09.900Z,100.00
2022-12-31T03:38:37.260Z,100.00
2022-12-31T03:41:04.595Z,100.00
2022-12-31T03:43:31.588Z,99.66
2022-12-31T03:46:00.033Z,99.77
2022-12-31T03:48:27.432Z,99.61
2022-12-31T03:50:54.645Z,98.92
2022-12-31T03:53:21.772Z,98.77
2022-12-31T03:55:53.300Z,98.12
2022-12-31T03:58:21.843Z,97.40
2022-12-31T04:00:49.526Z,97.10
2022-12-31T04:03:16.720Z,97.69
2022-12-31T04:05:43.936Z,97.68
2022-12-31T04:08:10.938Z,97.41
2022-12-31T04:10:37.943Z,96.91
2022-12-31T04:13:05.061Z,97.68
2022-12-31T04:15:32.247Z,98.18
2022-12-31T04:17:59.286Z,98.42
2022-12-31T04:20:26.442Z,98.61
2022-12-31T04:22:53.420Z,99.04
2022-12-31T04:25:20.435Z,98.89
2022-12-31T04:27:47.920Z,99.26
2022-12-31T04:30:15.143Z,99.45
2022-12-31T04:32:42.261Z,99.51
2022-12-31T04:35:10.717Z,99.71
2022-12-31T04:37:37.941Z,99.56
2022-12-31T04:40:08.640Z,99.65
2022-12-31T04:42:36.108Z,99.43
2022-12-31T04:45:03.312Z,99.54
2022-12-31T04:47:30.364Z,100.00
2022-12-31T04:49:57.316Z,100.00
2022-12-31T04:52:24.423Z,100.00
2022-12-31T04:54:51.530Z,100.00
2022-12-31T04:57:18.528Z,100.00
2022-12-31T04:59:45.558Z,100.00
2022-12-31T05:02:12.796Z,100.00
2022-12-31T05:04:40.001Z,100.00
2022-12-31T05:07:07.017Z,100.00
2022-12-31T05:09:33.995Z,100.00
2022-12-31T05:12:01.140Z,100.00
2022-12-31T05:14:28.140Z,100.00
2022-12-31T05:16:55.328Z,100.00
2022-12-31T05:19:22.443Z,100.00
2022-12-31T05:22:09.391Z,100.00
2022-12-31T05:24:36.537Z,100.00
2022-12-31T05:27:03.891Z,100.00
2022-12-31T05:29:30.927Z,100.00
2022-12-31T05:31:58.010Z,100.00
2022-12-31T05:34:24.940Z,100.00
2022-12-31T05:36:51.953Z,100.00
2022-12-31T05:39:18.999Z,100.00
2022-12-31T05:41:46.011Z,100.00
2022-12-31T05:44:13.212Z,100.00
2022-12-31T05:46:40.184Z,100.00
2022-12-31T05:49:07.210Z,100.00
2022-12-31T05:51:34.349Z,100.00
2022-12-31T05:54:01.416Z,100.00
2022-12-31T05:56:28.398Z,100.00
2022-12-31T05:58:55.621Z,100.00
2022-12-31T06:01:22.729Z,100.00
2022-12-31T06:03:49.766Z,100.00
2022-12-31T06:06:16.843Z,100.00
2022-12-31T06:08:43.863Z,100.00
2022-12-31T06:11:10.958Z,100.00
2022-12-31T06:13:37.953Z,100.00
2022-12-31T06:16:09.741Z,100.00
2022-12-31T06:18:37.182Z,100.00
2022-12-31T06:21:04.605Z,100.00
2022-12-31T06:23:31.773Z,100.00
2022-12-31T06:26:04.899Z,100.00
2022-12-31T06:28:31.860Z,100.00
2022-12-31T06:31:06.324Z,100.00
2022-12-31T06:33:34.109Z,100.00
2022-12-31T06:36:07.051Z,100.00
2022-12-31T06:38:37.003Z,100.00
2022-12-31T06:41:05.316Z,100.00
2022-12-31T06:43:32.419Z,100.00
2022-12-31T06:46:03.830Z,100.00
2022-12-31T06:48:30.979Z,100.00
2022-12-31T06:51:03.027Z,100.00
2022-12-31T06:53:30.029Z,100.00
2022-12-31T06:56:05.599Z,100.00
2022-12-31T06:58:33.224Z,100.00
2022-12-31T07:01:45.619Z,100.00
2022-12-31T07:04:58.488Z,100.00
2022-12-31T07:07:57.554Z,100.00
2022-12-31T07:10:50.146Z,100.00
2022-12-31T07:14:14.051Z,100.00
2022-12-31T07:17:11.084Z,100.00
2022-12-31T07:20:11.408Z,100.00
2022-12-31T07:22:40.987Z,100.00
2022-12-31T07:25:13.390Z,100.00
2022-12-31T07:27:51.473Z,100.00
2022-12-31T07:30:23.436Z,100.00
2022-12-31T07:33:31.736Z,100.00
2022-12-31T07:36:27.947Z,100.00
2022-12-31T07:39:15.036Z,100.00
2022-12-31T07:42:03.032Z,100.00
2022-12-31T07:45:15.144Z,100.00
2022-12-31T07:47:42.616Z,100.00
2022-12-31T07:50:18.202Z,100.00
2022-12-31T07:52:45.871Z,100.00
2022-12-31T07:55:13.186Z,100.00
2022-12-31T07:58:06.451Z,100.00
2022-12-31T08:00:33.928Z,100.00
2022-12-31T08:03:34.259Z,100.00
2022-12-31T08:06:44.681Z,100.00
2022-12-31T08:09:31.803Z,100.00
2022-12-31T08:12:01.193Z,100.00
2022-12-31T08:14:29.376Z,100.00
2022-12-31T08:16:57.533Z,100.00
2022-12-31T08:19:28.611Z,100.00
2022-12-31T08:22:47.057Z,100.00
2022-12-31T08:25:23.079Z,100.00
2022-12-31T08:28:42.305Z,99.16
2022-12-31T08:31:18.092Z,97.00
2022-12-31T08:34:05.757Z,96.02
2022-12-31T08:36:44.097Z,95.60
2022-12-31T08:39:51.010Z,94.61
2022-12-31T08:42:45.036Z,94.08
2022-12-31T08:45:38.056Z,95.14
2022-12-31T08:48:36.476Z,95.51
2022-12-31T08:51:03.813Z,95.56
2022-12-31T08:53:35.133Z,94.43
2022-12-31T08:56:15.595Z,92.85
2022-12-31T08:59:23.798Z,91.53
2022-12-31T09:02:48.069Z,92.29
2022-12-31T09:05:24.775Z,92.61
2022-12-31T09:08:29.124Z,92.43
2022-12-31T09:11:45.968Z,90.97
2022-12-31T09:14:49.594Z,89.92
2022-12-31T09:17:44.154Z,90.22
2022-12-31T09:20:42.423Z,89.96
2022-12-31T09:23:11.492Z,89.65
2022-12-31T09:26:11.294Z,88.10
2022-12-31T09:29:43.454Z,86.56
2022-12-31T09:32:55.328Z,85.42
2022-12-31T09:35:54.102Z,85.49
2022-12-31T09:38:35.969Z,85.47
2022-12-31T09:41:14.717Z,84.96
2022-12-31T09:44:46.617Z,85.40
2022-12-31T09:48:21.415Z,85.25
2022-12-31T09:51:04.448Z,85.02
2022-12-31T09:54:16.428Z,83.86
2022-12-31T09:56:59.266Z,82.68
2022-12-31T09:59:54.534Z,81.17
2022-12-31T10:02:43.754Z,81.29
2022-12-31T10:05:44.466Z,81.01
2022-12-31T10:08:43.608Z,78.65
2022-12-31T10:11:41.188Z,78.73
2022-12-31T10:14:45.303Z,78.52
2022-12-31T10:17:47.206Z,77.44
2022-12-31T10:20:56.289Z,75.96
2022-12-31T10:24:05.073Z,74.67
2022-12-31T10:27:27.469Z,74.42
2022-12-31T10:30:24.815Z,72.29
2022-12-31T10:33:19.560Z,73.55
2022-12-31T10:35:57.453Z,74.22
2022-12-31T10:39:24.647Z,70.83
2022-12-31T10:42:19.979Z,71.33
2022-12-31T10:45:38.114Z,70.13
2022-12-31T10:48:46.349Z,68.20
2022-12-31T10:51:58.342Z,68.72
2022-12-31T10:55:07.049Z,67.93
2022-12-31T10:58:27.523Z,66.42
2022-12-31T11:01:18.024Z,62.82
2022-12-31T11:04:39.963Z,60.45
2022-12-31T11:07:42.519Z,61.41
2022-12-31T11:10:50.154Z,62.27
2022-12-31T11:13:53.572Z,60.53
2022-12-31T11:51:31.385Z,54.17
2022-12-31T12:00:23.277Z,50.90
2022-12-31T12:02:59.393Z,50.42
2022-12-31T12:05:27.089Z,50.62
2022-12-31T12:07:54.776Z,50.02
2022-12-31T12:10:36.077Z,50.39
2022-12-31T12:13:22.859Z,49.70
2022-12-31T12:15:53.726Z,50.21
2022-12-31T12:18:49.666Z,49.85
2022-12-31T12:21:21.866Z,48.89
2022-12-31T12:24:01.132Z,49.91
2022-12-31T12:26:34.414Z,48.05
2022-12-31T12:29:19.512Z,48.22
2022-12-31T12:32:21.088Z,48.75
2022-12-31T12:34:50.055Z,47.39
2022-12-31T12:37:35.586Z,46.94
2022-12-31T12:40:31.408Z,46.50
2022-12-31T12:43:01.487Z,46.22
2022-12-31T12:45:38.443Z,47.10
2022-12-31T12:48:34.791Z,47.20
2022-12-31T12:51:06.670Z,46.35
2022-12-31T12:54:25.849Z,47.01
2022-12-31T12:57:43.862Z,46.36
2022-12-31T13:00:21.571Z,45.65
2022-12-31T13:04:14.691Z,45.78
2022-12-31T13:07:19.260Z,45.46
2022-12-31T13:10:15.292Z,44.74
2022-12-31T13:15:57.908Z,45.11
2022-12-31T13:19:07.723Z,45.68
2022-12-31T13:22:07.516Z,44.59
2022-12-31T13:25:05.711Z,44.63
2022-12-31T13:27:39.791Z,44.30
2022-12-31T13:30:31.315Z,44.06
2022-12-31T13:33:20.613Z,44.30
2022-12-31T13:36:08.548Z,42.41
2022-12-31T13:38:40.898Z,42.92
2022-12-31T13:41:32.542Z,42.78
2022-12-31T13:44:18.579Z,41.51
2022-12-31T13:47:01.037Z,41.52
2022-12-31T13:49:43.840Z,39.53
2022-12-31T13:52:58.695Z,37.65
2022-12-31T13:55:39.027Z,34.39
2022-12-31T13:58:37.317Z,34.09
2022-12-31T14:01:37.235Z,32.82
2022-12-31T14:04:28.521Z,32.03
2022-12-31T14:07:21.886Z,30.74
2022-12-31T14:09:50.093Z,30.83
2022-12-31T14:12:55.802Z,30.27
2022-12-31T14:15:32.825Z,29.66
2022-12-31T14:18:48.863Z,29.56
2022-12-31T14:21:23.985Z,29.30
2022-12-31T14:24:16.121Z,30.02
2022-12-31T14:26:50.787Z,29.82
2022-12-31T14:29:37.509Z,29.46
2022-12-31T14:32:59.712Z,30.10
2022-12-31T14:35:56.798Z,30.50
2022-12-31T14:39:13.284Z,30.85
2022-12-31T14:42:34.630Z,31.21
2022-12-31T14:45:50.858Z,32.94
2022-12-31T14:48:53.638Z,34.51
2022-12-31T14:51:20.808Z,36.26
2022-12-31T14:53:55.333Z,37.73
2022-12-31T14:56:48.562Z,39.30
2022-12-31T14:59:32.290Z,40.11
2022-12-31T15:02:03.093Z,41.22
2022-12-31T15:04:48.276Z,42.34
2022-12-31T15:07:34.078Z,43.18
2022-12-31T15:10:19.437Z,44.07
2022-12-31T15:13:06.606Z,44.95
2022-12-31T15:16:14.390Z,45.59
2022-12-31T15:19:03.174Z,46.35
2022-12-31T15:21:58.507Z,47.37
2022-12-31T15:24:27.913Z,47.98
2022-12-31T15:26:58.714Z,48.65
2022-12-31T15:29:35.314Z,49.00
2022-12-31T15:32:15.581Z,49.39
2022-12-31T15:34:42.758Z,50.05
2022-12-31T15:37:33.208Z,50.44
2022-12-31T15:40:18.674Z,50.98
2022-12-31T15:42:51.084Z,51.19
2022-12-31T15:45:26.727Z,51.86
2022-12-31T15:47:59.667Z,52.75
2022-12-31T15:50:28.369Z,53.07
2022-12-31T15:52:57.965Z,53.69
2022-12-31T15:55:30.364Z,54.00
2022-12-31T15:58:03.500Z,54.48
2022-12-31T16:01:02.783Z,55.37
2022-12-31T16:03:32.627Z,56.10
2022-12-31T16:06:03.115Z,56.72
2022-12-31T16:08:35.899Z,57.33
2022-12-31T16:11:09.173Z,57.76
2022-12-31T16:13:41.547Z,58.55
2022-12-31T16:16:20.895Z,58.52
2022-12-31T16:18:50.803Z,58.83
2022-12-31T16:21:46.722Z,59.65
2022-12-31T16:24:37.468Z,59.90
2022-12-31T16:27:16.904Z,60.21
2022-12-31T16:29:55.666Z,61.29
2022-12-31T16:32:23.597Z,61.58
2022-12-31T16:34:50.646Z,61.66
2022-12-31T16:37:20.623Z,62.61
2022-12-31T16:40:16.568Z,63.44
2022-12-31T16:42:46.718Z,65.18
2022-12-31T16:45:35.950Z,64.57
2022-12-31T16:48:17.401Z,64.86
2022-12-31T16:50:51.088Z,64.89
2022-12-31T16:53:21.727Z,64.68
2022-12-31T16:55:56.054Z,64.71
2022-12-31T16:58:34.145Z,65.36
2022-12-31T17:01:26.994Z,65.77
2022-12-31T17:03:58.244Z,66.08
2022-12-31T17:06:28.333Z,66.43
2022-12-31T17:09:10.379Z,66.78
2022-12-31T17:11:50.624Z,67.09
2022-12-31T17:14:20.665Z,68.73
2022-12-31T17:17:08.313Z,70.09
2022-12-31T17:19:47.675Z,69.71
2022-12-31T17:22:37.236Z,70.47
2022-12-31T17:25:07.426Z,70.34
2022-12-31T17:27:36.232Z,70.28
2022-12-31T17:30:23.280Z,71.00
2022-12-31T17:32:52.247Z,71.22
2022-12-31T17:35:34.881Z,71.42
2022-12-31T17:38:39.668Z,72.41
2022-12-31T17:41:23.385Z,73.82
2022-12-31T17:43:57.732Z,74.94
2022-12-31T17:46:26.155Z,75.01
2022-12-31T17:48:57.847Z,75.02
2022-12-31T17:51:24.895Z,75.62
2022-12-31T17:53:52.104Z,75.67
2022-12-31T17:56:20.956Z,75.68
2022-12-31T17:58:51.843Z,75.80
2022-12-31T18:01:21.938Z,76.35
2022-12-31T18:03:49.567Z,76.52
2022-12-31T18:06:17.330Z,77.00
2022-12-31T18:08:44.526Z,76.91
2022-12-31T18:11:20.877Z,76.56
2022-12-31T18:13:48.876Z,76.91
2022-12-31T18:16:16.500Z,77.33
2022-12-31T18:18:45.679Z,76.76
2022-12-31T18:21:26.965Z,77.68
2022-12-31T18:26:23.606Z,78.47
2022-12-31T18:28:51.512Z,78.38
2022-12-31T18:31:24.567Z,79.17
2022-12-31T18:33:53.878Z,79.63
2022-12-31T18:36:22.295Z,80.17
2022-12-31T18:38:49.746Z,80.33
2022-12-31T18:41:22.542Z,80.71
2022-12-31T18:43:50.601Z,80.51
2022-12-31T18:46:20.499Z,80.65
2022-12-31T18:48:48.319Z,81.64
2022-12-31T18:51:18.638Z,81.61
2022-12-31T18:53:46.312Z,81.59
2022-12-31T18:56:16.229Z,81.35
2022-12-31T18:58:43.627Z,81.90
2022-12-31T19:01:32.562Z,81.56
2022-12-31T19:04:02.700Z,81.40
2022-12-31T19:06:31.052Z,81.45
2022-12-31T19:09:00.832Z,82.06
2022-12-31T19:11:28.266Z,82.19
2022-12-31T19:13:55.643Z,81.57
2022-12-31T19:16:22.694Z,81.29
2022-12-31T19:18:50.960Z,82.07
2022-12-31T19:21:20.584Z,82.21
2022-12-31T19:23:47.819Z,81.82
2022-12-31T19:26:20.825Z,81.07
2022-12-31T19:28:49.337Z,81.32
2022-12-31T19:31:17.349Z,81.50
2022-12-31T19:33:44.744Z,82.32
2022-12-31T19:36:16.728Z,82.49
2022-12-31T19:38:44.687Z,82.60
2022-12-31T19:41:20.264Z,82.80
2022-12-31T19:43:48.328Z,83.90
2022-12-31T19:46:17.677Z,83.92
2022-12-31T19:48:45.876Z,84.01
2022-12-31T19:51:16.913Z,84.57
2022-12-31T19:53:45.284Z,84.94
2022-12-31T19:56:20.544Z,85.53
2022-12-31T19:58:48.299Z,85.50
2022-12-31T20:01:23.946Z,85.54
2022-12-31T20:03:51.337Z,85.14
2022-12-31T20:06:19.419Z,85.15
2022-12-31T20:08:46.807Z,85.73
2022-12-31T20:11:19.047Z,85.18
2022-12-31T20:13:47.657Z,86.14
2022-12-31T20:16:18.055Z,85.84
2022-12-31T20:18:47.182Z,86.66
2022-12-31T20:21:20.564Z,87.55
2022-12-31T20:23:49.353Z,88.24
2022-12-31T20:26:16.915Z,88.79
2022-12-31T20:28:44.191Z,86.98
2022-12-31T20:31:16.867Z,87.53
2022-12-31T20:33:44.266Z,86.75
2022-12-31T20:36:13.784Z,86.88
2022-12-31T20:38:40.966Z,87.57
2022-12-31T20:41:16.548Z,87.95
2022-12-31T20:43:44.427Z,88.25
2022-12-31T20:46:19.747Z,88.49
2022-12-31T20:48:48.300Z,89.06
2022-12-31T20:51:17.218Z,87.84
2022-12-31T20:53:53.084Z,86.76
2022-12-31T20:56:20.090Z,86.90
2022-12-31T20:58:47.636Z,87.45
2022-12-31T21:01:15.715Z,87.85
2022-12-31T21:06:32.258Z,88.85
2022-12-31T21:09:01.418Z,88.95
2022-12-31T21:11:47.439Z,88.66
2022-12-31T21:14:15.146Z,88.98
2022-12-31T21:16:42.218Z,88.77
2022-12-31T21:19:10.141Z,88.34
2022-12-31T21:21:37.277Z,88.39
2022-12-31T21:24:04.958Z,88.46
2022-12-31T21:26:32.315Z,88.76
2022-12-31T21:28:59.412Z,90.96
2022-12-31T21:31:26.698Z,90.77
2022-12-31T21:33:53.961Z,90.41
2022-12-31T21:36:21.152Z,91.23
2022-12-31T21:38:48.208Z,90.64
2022-12-31T21:41:35.091Z,90.94
2022-12-31T21:44:02.950Z,91.30
2022-12-31T21:46:30.317Z,92.00
2022-12-31T21:48:59.456Z,92.23
2022-12-31T21:51:26.810Z,92.47
2022-12-31T21:53:54.194Z,92.63
2022-12-31T21:56:22.540Z,92.80
2022-12-31T21:59:13.937Z,92.76
2022-12-31T22:01:59.486Z,93.33
2022-12-31T22:07:13.836Z,92.63
2022-12-31T22:09:40.794Z,92.59
2022-12-31T22:12:08.021Z,92.38
2022-12-31T22:14:35.013Z,93.00
2022-12-31T22:17:01.971Z,93.16
2022-12-31T22:19:28.986Z,92.34
2022-12-31T22:21:56.015Z,93.84
2022-12-31T22:24:22.986Z,95.30
2022-12-31T22:26:51.085Z,95.55
2022-12-31T22:29:19.991Z,95.30
2022-12-31T22:31:46.976Z,95.70
2022-12-31T22:34:14.087Z,96.39
2022-12-31T22:36:41.107Z,96.49
2022-12-31T22:39:13.739Z,95.10
2022-12-31T22:42:00.728Z,94.50
2022-12-31T22:44:27.674Z,94.67
2022-12-31T22:46:56.367Z,95.55
2022-12-31T22:49:23.544Z,97.10
2022-12-31T22:51:56.859Z,98.42
2022-12-31T22:54:25.926Z,99.86
2022-12-31T22:56:53.115Z,100.00
2022-12-31T22:59:20.227Z,100.00
2022-12-31T23:01:47.597Z,100.00
2022-12-31T23:04:14.881Z,100.00
2022-12-31T23:06:44.791Z,100.00
2022-12-31T23:09:32.553Z,100.00
2022-12-31T23:12:00.076Z,100.00
2022-12-31T23:14:45.849Z,100.00
2022-12-31T23:17:38.870Z,100.00
2022-12-31T23:20:28.995Z,100.00
2022-12-31T23:23:11.702Z,100.00
2022-12-31T23:25:43.439Z,100.00
2022-12-31T23:28:23.616Z,100.00
2022-12-31T23:30:51.737Z,100.00
2022-12-31T23:33:21.925Z,100.00
2022-12-31T23:35:49.306Z,100.00
2022-12-31T23:38:17.902Z,100.00
2022-12-31T23:40:45.450Z,100.00
2022-12-31T23:43:22.607Z,100.00
2022-12-31T23:45:53.467Z,100.00
2022-12-31T23:48:20.623Z,100.00
2022-12-31T23:50:54.499Z,100.00
2022-12-31T23:53:23.338Z,100.00
2022-12-31T23:55:51.401Z,100.00
2022-12-31T23:58:18.503Z,100.00
